East Grand Forks, Minnesota
Current Conditions -  °F | °C
As of 6:53 PM on Wednesday 22 Oct 2014 (Local Time) from KGFK Reporting Station
Overcast Overcast  
Wind Chill: 55°   Ceiling: 9500
Heat Index: 55°   Visibility: 10mi
Dew Point: 53°   Wind: 6mph
Humidity: 93%   Direction: 210°SSW
Pressure: 29.83"   Gusts: NA
Location:  47.93°N, 97.02°W
Report Text: KGFK 222353Z 21005KT 10SM SCT055 BKN095 OVC120 13/12 A2983 RMK AO2 RAE45 SLP103 P0001 60004 T01280117 10178 20128 51008
Loading
Personal Weather Stations






























Interactive Weather Map
Tropical Storm Tracking
New forecast layout! Learn more

10-Day Weather Forecast

Advertisements
Track Severe Weather on mobile